createdAt,value
2023-04-25T00:00:07.886Z,93933.94
2023-04-25T00:01:06.079Z,93963.41
2023-04-25T00:02:04.388Z,93951.25
2023-04-25T00:03:01.391Z,93958.59
2023-04-25T00:03:58.653Z,93952.25
2023-04-25T00:04:59.366Z,93944.06
2023-04-25T00:05:57.940Z,93948.56
2023-04-25T00:06:55.491Z,93943.19
2023-04-25T00:07:52.530Z,93923.00
2023-04-25T00:08:49.814Z,93936.91
2023-04-25T00:09:46.809Z,93907.66
2023-04-25T00:10:43.566Z,93944.50
2023-04-25T00:11:41.709Z,93937.94
2023-04-25T00:12:39.957Z,93925.56
2023-04-25T00:13:36.726Z,93930.38
2023-04-25T00:14:36.568Z,93936.34
2023-04-25T00:15:33.372Z,93930.66
2023-04-25T00:16:34.423Z,93902.13
2023-04-25T00:17:32.432Z,93940.03
2023-04-25T00:18:30.228Z,93897.88
2023-04-25T00:19:29.289Z,93853.72
2023-04-25T00:20:26.137Z,93938.41
2023-04-25T00:21:25.437Z,93941.72
2023-04-25T00:22:22.448Z,93898.91
2023-04-25T00:23:19.454Z,93928.06
2023-04-25T00:24:16.356Z,93969.25
2023-04-25T00:25:13.302Z,93963.88
2023-04-25T00:26:10.133Z,93951.34
2023-04-25T00:27:06.856Z,93957.47
2023-04-25T00:28:03.780Z,93931.06
2023-04-25T00:29:00.537Z,93965.19
2023-04-25T00:29:57.371Z,93960.53
2023-04-25T00:30:54.232Z,93968.34
2023-04-25T00:31:51.023Z,93932.78
2023-04-25T00:32:47.921Z,93950.34
2023-04-25T00:33:44.740Z,93914.38
2023-04-25T00:34:41.521Z,93959.44
2023-04-25T00:35:39.333Z,93961.81
2023-04-25T00:36:36.321Z,93962.03
2023-04-25T00:37:33.038Z,93932.50
2023-04-25T00:38:29.780Z,93955.16
2023-04-25T00:39:26.566Z,93957.44
2023-04-25T00:40:23.637Z,93952.59
2023-04-25T00:41:20.901Z,93954.03
2023-04-25T00:42:17.757Z,93939.72
2023-04-25T00:43:14.563Z,93933.44
2023-04-25T00:44:12.931Z,93900.66
2023-04-25T00:45:15.595Z,93948.91
2023-04-25T00:46:12.317Z,93900.25
2023-04-25T00:47:09.399Z,93953.66
2023-04-25T00:48:06.504Z,93941.66
2023-04-25T00:49:03.409Z,93925.22
2023-04-25T00:50:00.254Z,93947.09
2023-04-25T00:51:00.935Z,93925.56
2023-04-25T00:51:57.919Z,93951.16
2023-04-25T00:52:55.284Z,93862.56
2023-04-25T00:53:52.838Z,93943.59
2023-04-25T00:54:49.996Z,93946.34
2023-04-25T00:55:46.867Z,93935.19
2023-04-25T00:56:46.189Z,93941.16
2023-04-25T00:57:43.784Z,93912.81
2023-04-25T00:58:42.460Z,93931.13
2023-04-25T00:59:39.842Z,93930.44
2023-04-25T01:00:37.789Z,93906.22
2023-04-25T01:01:34.788Z,93933.66
2023-04-25T01:02:32.867Z,93933.09
2023-04-25T01:03:34.389Z,93835.56
2023-04-25T01:04:31.557Z,93935.09
2023-04-25T01:05:28.298Z,93892.16
2023-04-25T01:06:25.592Z,93933.91
2023-04-25T01:07:22.391Z,93935.09
2023-04-25T01:08:19.258Z,93942.41
2023-04-25T01:09:16.039Z,93915.59
2023-04-25T01:10:12.776Z,93899.91
2023-04-25T01:11:10.066Z,93921.53
2023-04-25T01:12:07.050Z,93899.84
2023-04-25T01:13:04.452Z,93870.63
2023-04-25T01:14:02.918Z,93897.72
2023-04-25T01:14:59.855Z,93917.72
2023-04-25T01:15:56.623Z,93923.56
2023-04-25T01:16:54.184Z,93912.00
2023-04-25T01:17:51.191Z,93918.66
2023-04-25T01:18:49.147Z,93916.94
2023-04-25T01:19:48.696Z,93902.38
2023-04-25T01:20:47.520Z,93915.44
2023-04-25T01:21:44.851Z,93915.00
2023-04-25T01:22:41.711Z,93923.19
2023-04-25T01:23:42.265Z,93919.81
2023-04-25T01:24:39.702Z,93922.06
2023-04-25T01:25:37.801Z,93918.00
2023-04-25T01:26:36.450Z,93921.25
2023-04-25T01:27:33.797Z,93908.06
2023-04-25T01:28:31.156Z,93841.84
2023-04-25T01:29:29.255Z,93920.84
2023-04-25T01:30:29.799Z,93882.38
2023-04-25T01:31:28.619Z,93892.94
2023-04-25T01:32:25.606Z,93922.22
2023-04-25T01:33:23.239Z,93809.41
2023-04-25T01:34:20.623Z,93870.81
2023-04-25T01:35:17.498Z,93910.97
2023-04-25T01:36:15.643Z,93924.50
2023-04-25T01:37:12.425Z,93922.91
2023-04-25T01:38:09.782Z,93905.56
2023-04-25T01:39:06.559Z,93930.44
2023-04-25T01:40:04.498Z,93930.72
2023-04-25T01:41:01.419Z,93930.28
2023-04-25T01:41:58.239Z,93899.47
2023-04-25T01:42:55.913Z,93922.66
2023-04-25T01:43:53.087Z,93922.53
2023-04-25T01:44:50.157Z,93927.56
2023-04-25T01:45:47.626Z,93926.03
2023-04-25T01:46:44.477Z,93928.75
2023-04-25T01:47:42.576Z,93896.50
2023-04-25T01:48:39.461Z,93928.84
2023-04-25T01:49:36.223Z,93918.91
2023-04-25T01:50:32.964Z,93910.53
2023-04-25T01:51:29.874Z,93921.69
2023-04-25T01:52:26.648Z,93910.06
2023-04-25T01:53:23.784Z,93940.06
2023-04-25T01:54:21.301Z,93897.00
2023-04-25T01:55:18.104Z,93931.25
2023-04-25T01:56:14.865Z,93889.00
2023-04-25T01:57:12.616Z,93936.53
2023-04-25T01:58:13.998Z,93935.91
2023-04-25T01:59:10.842Z,93919.59
2023-04-25T02:00:10.188Z,93928.47
2023-04-25T02:01:06.980Z,93942.41
2023-04-25T02:02:06.516Z,93952.44
2023-04-25T02:03:03.493Z,93953.41
2023-04-25T02:04:00.647Z,93929.16
2023-04-25T02:04:57.644Z,93951.78
2023-04-25T02:05:54.375Z,93941.22
2023-04-25T02:06:51.130Z,93942.25
2023-04-25T02:07:49.108Z,93960.25
2023-04-25T02:08:45.826Z,93898.66
2023-04-25T02:09:42.538Z,93940.09
2023-04-25T02:10:39.443Z,93944.59
2023-04-25T02:11:36.493Z,93950.72
2023-04-25T02:12:33.309Z,93949.22
2023-04-25T02:13:30.189Z,93948.91
2023-04-25T02:14:26.946Z,93943.69
2023-04-25T02:15:23.658Z,93943.28
2023-04-25T02:16:20.663Z,93943.88
2023-04-25T02:17:17.464Z,93899.59
2023-04-25T02:18:14.330Z,93944.78
2023-04-25T02:19:11.811Z,93932.63
2023-04-25T02:20:09.204Z,93920.44
2023-04-25T02:21:05.922Z,93913.09
2023-04-25T02:22:03.395Z,93895.63
2023-04-25T02:23:00.247Z,93923.28
2023-04-25T02:23:57.369Z,93918.97
2023-04-25T02:24:55.231Z,93888.16
2023-04-25T02:25:53.397Z,93795.88
2023-04-25T02:26:50.724Z,93903.38
2023-04-25T02:27:50.388Z,93921.09
2023-04-25T02:28:47.147Z,93923.19
2023-04-25T02:29:43.970Z,93908.50
2023-04-25T02:30:41.040Z,93909.34
2023-04-25T02:31:37.753Z,93896.56
2023-04-25T02:32:35.344Z,93918.25
2023-04-25T02:33:32.223Z,93874.31
2023-04-25T02:34:28.989Z,93879.03
2023-04-25T02:35:25.934Z,93900.59
2023-04-25T02:36:22.747Z,93907.84
2023-04-25T02:37:19.595Z,93820.91
2023-04-25T02:38:16.358Z,93902.31
2023-04-25T02:39:13.097Z,93873.63
2023-04-25T02:40:10.326Z,93899.84
2023-04-25T02:41:07.223Z,93896.81
2023-04-25T02:42:04.054Z,93899.06
2023-04-25T02:43:00.824Z,93852.50
2023-04-25T02:43:57.519Z,93899.59
2023-04-25T02:44:54.354Z,93888.53
2023-04-25T02:45:51.155Z,93895.09
2023-04-25T02:46:48.042Z,93883.56
2023-04-25T02:47:44.874Z,93889.00
2023-04-25T02:48:41.610Z,93903.81
2023-04-25T02:49:38.298Z,93904.38
2023-04-25T02:50:35.020Z,93899.69
2023-04-25T02:51:32.060Z,93880.63
2023-04-25T02:52:28.897Z,93878.09
2023-04-25T02:53:25.649Z,93894.19
2023-04-25T02:54:22.426Z,93891.94
2023-04-25T02:55:19.280Z,93889.13
2023-04-25T02:56:16.033Z,93815.25
2023-04-25T02:57:12.815Z,93492.34
2023-04-25T02:58:09.525Z,93859.22
2023-04-25T02:59:06.391Z,93805.00
2023-04-25T03:00:05.759Z,93893.16
2023-04-25T03:01:02.521Z,93866.31
2023-04-25T03:01:59.265Z,93893.66
2023-04-25T03:02:56.676Z,93875.00
2023-04-25T03:03:53.814Z,93879.88
2023-04-25T03:04:51.203Z,93849.28
2023-04-25T03:05:48.921Z,93882.44
2023-04-25T03:06:45.690Z,93883.38
2023-04-25T03:07:44.639Z,93880.53
2023-04-25T03:08:41.482Z,93881.97
2023-04-25T03:09:38.216Z,93885.16
2023-04-25T03:10:35.041Z,93858.34
2023-04-25T03:11:31.766Z,93884.75
2023-04-25T03:12:28.572Z,93853.94
2023-04-25T03:13:25.796Z,93885.81
2023-04-25T03:14:22.829Z,93815.44
2023-04-25T03:15:19.746Z,93880.06
2023-04-25T03:16:16.772Z,93886.94
2023-04-25T03:17:13.644Z,93845.75
2023-04-25T03:18:10.404Z,93879.19
2023-04-25T03:19:07.332Z,93886.84
2023-04-25T03:20:05.244Z,93887.41
2023-04-25T03:21:02.164Z,93884.38
2023-04-25T03:21:58.966Z,93886.56
2023-04-25T03:22:55.800Z,93883.94
2023-04-25T03:23:52.836Z,93887.63
2023-04-25T03:24:49.801Z,93868.94
2023-04-25T03:25:46.614Z,93869.56
2023-04-25T03:26:43.428Z,93839.72
2023-04-25T03:27:40.325Z,93763.84
2023-04-25T03:28:37.089Z,93881.19
2023-04-25T03:29:33.996Z,93868.88
2023-04-25T03:30:30.839Z,93886.34
2023-04-25T03:31:27.631Z,93887.25
2023-04-25T03:32:24.448Z,93891.91
2023-04-25T03:33:21.292Z,93880.81
2023-04-25T03:34:18.069Z,93895.84
2023-04-25T03:35:14.764Z,93881.56
2023-04-25T03:36:11.533Z,93886.00
2023-04-25T03:37:08.371Z,93854.47
2023-04-25T03:38:05.145Z,93892.50
2023-04-25T03:39:01.949Z,93895.81
2023-04-25T03:39:58.759Z,93887.69
2023-04-25T03:40:57.168Z,93882.84
2023-04-25T03:41:53.956Z,93878.47
2023-04-25T03:42:51.199Z,93885.25
2023-04-25T03:43:48.239Z,93886.16
2023-04-25T03:44:45.350Z,93877.53
2023-04-25T03:45:42.143Z,93871.47
2023-04-25T03:46:38.894Z,93880.75
2023-04-25T03:47:35.680Z,93783.94
2023-04-25T03:48:32.417Z,93885.94
2023-04-25T03:49:29.237Z,93881.97
2023-04-25T03:50:26.037Z,93887.09
2023-04-25T03:51:22.857Z,93827.50
2023-04-25T03:52:19.581Z,93888.03
2023-04-25T03:53:16.262Z,93770.66
2023-04-25T03:54:13.057Z,93872.81
2023-04-25T03:55:10.346Z,93889.59
2023-04-25T03:56:07.450Z,93888.09
2023-04-25T03:57:04.187Z,93891.53
2023-04-25T03:58:01.000Z,93892.31
2023-04-25T03:58:57.796Z,93890.41
2023-04-25T03:59:54.602Z,93889.72
2023-04-25T04:00:51.359Z,93894.25
2023-04-25T04:01:48.181Z,93904.06
2023-04-25T04:02:45.698Z,93875.22
2023-04-25T04:03:42.913Z,93904.06
2023-04-25T04:04:40.224Z,93881.97
2023-04-25T04:05:38.263Z,93900.81
2023-04-25T04:06:35.068Z,93897.38
2023-04-25T04:07:33.895Z,93896.41
2023-04-25T04:08:31.185Z,93892.59
2023-04-25T04:09:28.619Z,93859.59
2023-04-25T04:10:25.436Z,93877.41
2023-04-25T04:11:22.159Z,93891.94
2023-04-25T04:12:18.913Z,93877.41
2023-04-25T04:13:15.792Z,93894.72
2023-04-25T04:14:12.669Z,93893.81
2023-04-25T04:15:10.845Z,93894.06
2023-04-25T04:16:07.845Z,93877.22
2023-04-25T04:17:04.699Z,93865.03
2023-04-25T04:18:04.240Z,93889.81
2023-04-25T04:19:01.049Z,93886.16
2023-04-25T04:19:57.872Z,93857.69
2023-04-25T04:20:54.716Z,93884.81
2023-04-25T04:21:51.457Z,93880.69
2023-04-25T04:22:48.215Z,93885.72
2023-04-25T04:23:44.973Z,93785.06
2023-04-25T04:24:44.949Z,93876.16
2023-04-25T04:25:42.866Z,93882.09
2023-04-25T04:26:39.819Z,93890.06
2023-04-25T04:27:36.550Z,93879.59
2023-04-25T04:28:33.242Z,93874.44
2023-04-25T04:29:29.991Z,93894.06
2023-04-25T04:30:26.871Z,93896.00
2023-04-25T04:31:24.904Z,93893.91
2023-04-25T04:32:21.806Z,93892.13
2023-04-25T04:33:20.550Z,93889.69
2023-04-25T04:34:20.088Z,93890.50
2023-04-25T04:35:17.018Z,93893.00
2023-04-25T04:36:14.346Z,93894.19
2023-04-25T04:37:11.190Z,93887.91
2023-04-25T04:38:08.024Z,93892.75
2023-04-25T04:39:06.854Z,93897.69
2023-04-25T04:40:06.228Z,93885.38
2023-04-25T04:41:04.363Z,93886.25
2023-04-25T04:42:02.886Z,93889.50
2023-04-25T04:42:59.577Z,93902.84
2023-04-25T04:43:57.028Z,93899.19
2023-04-25T04:44:55.986Z,93899.06
2023-04-25T04:45:53.377Z,93877.69
2023-04-25T04:46:50.137Z,93897.00
2023-04-25T04:47:47.294Z,93897.47
2023-04-25T04:48:45.599Z,93810.94
2023-04-25T04:49:42.451Z,93892.72
2023-04-25T04:50:39.945Z,93906.56
2023-04-25T04:51:37.737Z,93874.81
2023-04-25T04:52:34.592Z,93882.41
2023-04-25T04:53:31.371Z,93894.97
2023-04-25T04:54:28.186Z,93861.09
2023-04-25T04:55:25.071Z,93893.66
2023-04-25T04:56:24.721Z,93906.09
2023-04-25T04:57:21.495Z,93907.47
2023-04-25T04:58:19.219Z,93917.31
2023-04-25T04:59:16.036Z,93918.81
2023-04-25T05:00:13.290Z,93903.88
2023-04-25T05:01:10.107Z,93905.63
2023-04-25T05:02:06.908Z,93913.78
2023-04-25T05:03:03.946Z,93921.78
2023-04-25T05:04:02.134Z,93920.09
2023-04-25T05:04:59.306Z,93884.47
2023-04-25T05:05:56.272Z,93922.00
2023-04-25T05:06:53.045Z,93910.63
2023-04-25T05:07:49.726Z,93919.78
2023-04-25T05:08:46.567Z,93899.25
2023-04-25T05:09:43.382Z,93890.19
2023-04-25T05:10:40.152Z,93896.69
2023-04-25T05:11:36.907Z,93942.78
2023-04-25T05:12:34.663Z,93933.38
2023-04-25T05:13:32.566Z,93899.91
2023-04-25T05:14:29.653Z,93936.31
2023-04-25T05:15:26.370Z,93904.56
2023-04-25T05:16:24.363Z,93903.69
2023-04-25T05:17:21.181Z,93936.41
2023-04-25T05:18:17.903Z,93931.13
2023-04-25T05:19:14.871Z,93929.84
2023-04-25T05:20:11.920Z,93927.88
2023-04-25T05:21:08.717Z,93932.63
2023-04-25T05:22:05.516Z,93914.22
2023-04-25T05:23:02.309Z,93900.69
2023-04-25T05:23:59.095Z,93934.72
2023-04-25T05:24:56.176Z,93927.16
2023-04-25T05:25:53.031Z,93916.25
2023-04-25T05:26:49.782Z,93919.47
2023-04-25T05:27:46.952Z,93885.34
2023-04-25T05:28:43.780Z,93910.09
2023-04-25T05:29:40.658Z,93895.47
2023-04-25T05:30:37.449Z,93924.47
2023-04-25T05:31:34.846Z,93907.25
2023-04-25T05:32:31.683Z,93886.16
2023-04-25T05:33:28.468Z,93878.53
2023-04-25T05:34:25.443Z,93875.44
2023-04-25T05:35:22.255Z,93922.16
2023-04-25T05:36:22.273Z,93915.22
2023-04-25T05:37:19.026Z,93921.19
2023-04-25T05:38:15.792Z,93915.00
2023-04-25T05:39:12.613Z,93900.31
2023-04-25T05:40:10.109Z,93911.59
2023-04-25T05:41:06.929Z,93906.59
2023-04-25T05:42:04.919Z,93878.59
2023-04-25T05:43:01.933Z,93884.78
2023-04-25T05:43:58.954Z,93905.13
2023-04-25T05:44:56.164Z,93906.34
2023-04-25T05:45:53.109Z,93906.34
2023-04-25T05:46:50.034Z,93856.59
2023-04-25T05:47:46.808Z,93902.09
2023-04-25T05:48:43.767Z,93855.19
2023-04-25T05:49:40.478Z,93900.84
2023-04-25T05:50:37.219Z,93881.91
2023-04-25T05:51:33.996Z,93804.53
2023-04-25T05:52:30.789Z,93899.38
2023-04-25T05:53:30.655Z,93903.75
2023-04-25T05:54:27.405Z,93896.44
2023-04-25T05:55:24.125Z,93893.97
2023-04-25T05:56:20.926Z,93902.75
2023-04-25T05:57:25.356Z,93907.94
2023-04-25T05:58:22.215Z,93909.19
2023-04-25T05:59:19.054Z,93889.44
2023-04-25T06:00:16.975Z,93912.94
2023-04-25T06:01:13.741Z,93903.31
2023-04-25T06:02:10.564Z,93906.53
2023-04-25T06:03:10.785Z,93900.13
2023-04-25T06:04:08.060Z,93906.16
2023-04-25T06:05:05.719Z,93900.34
2023-04-25T06:06:02.860Z,93857.81
2023-04-25T06:06:59.837Z,93901.22
2023-04-25T06:07:56.800Z,93898.91
2023-04-25T06:08:53.603Z,93903.91
2023-04-25T06:09:50.328Z,93901.03
2023-04-25T06:10:47.063Z,93894.34
2023-04-25T06:11:43.851Z,93822.09
2023-04-25T06:12:40.590Z,93900.00
2023-04-25T06:13:37.257Z,93903.72
2023-04-25T06:14:35.136Z,93896.81
2023-04-25T06:15:33.508Z,93902.75
2023-04-25T06:16:30.351Z,93902.84
2023-04-25T06:17:45.790Z,93906.94
2023-04-25T06:18:42.551Z,93897.75
2023-04-25T06:19:39.369Z,93898.78
2023-04-25T06:20:36.145Z,93899.63
2023-04-25T06:21:32.933Z,93884.41
2023-04-25T06:22:29.671Z,93905.59
2023-04-25T06:23:26.446Z,93905.22
2023-04-25T06:24:23.214Z,93896.38
2023-04-25T06:25:20.299Z,93903.38
2023-04-25T06:26:17.018Z,93904.72
2023-04-25T06:27:15.145Z,93875.09
2023-04-25T06:28:13.327Z,93867.25
2023-04-25T06:29:10.283Z,93853.41
2023-04-25T06:30:07.836Z,93865.47
2023-04-25T06:31:04.784Z,93903.72
2023-04-25T06:32:01.550Z,93910.13
2023-04-25T06:32:58.335Z,93906.63
2023-04-25T06:33:55.844Z,93850.13
2023-04-25T06:34:52.617Z,93899.03
2023-04-25T06:35:49.414Z,93879.94
2023-04-25T06:36:46.239Z,93902.16
2023-04-25T06:37:43.551Z,93901.16
2023-04-25T06:38:40.339Z,93864.34
2023-04-25T06:39:41.254Z,93905.66
2023-04-25T06:40:38.264Z,93819.22
2023-04-25T06:41:34.961Z,93831.97
2023-04-25T06:42:31.675Z,93901.19
2023-04-25T06:43:28.493Z,93898.78
2023-04-25T06:44:27.193Z,93894.28
2023-04-25T06:45:23.951Z,93886.34
2023-04-25T06:46:20.917Z,93896.16
2023-04-25T06:47:17.759Z,93896.69
2023-04-25T06:48:14.455Z,93893.25
2023-04-25T06:49:11.129Z,93857.75
2023-04-25T06:50:08.362Z,93902.78
2023-04-25T06:51:05.425Z,93883.69
2023-04-25T06:52:02.257Z,93825.97
2023-04-25T06:52:59.012Z,93893.75
2023-04-25T06:53:55.843Z,93816.97
2023-04-25T06:54:52.623Z,93897.47
2023-04-25T06:55:49.433Z,93892.72
2023-04-25T06:56:46.183Z,93899.31
2023-04-25T06:57:43.005Z,93889.50
2023-04-25T06:58:39.738Z,93892.41
2023-04-25T06:59:36.576Z,93892.69
2023-04-25T07:00:34.554Z,93864.63
2023-04-25T07:01:31.871Z,93893.50
2023-04-25T07:02:28.669Z,93879.47
2023-04-25T07:03:25.710Z,93899.06
2023-04-25T07:04:25.321Z,93881.03
2023-04-25T07:05:22.379Z,93843.44
2023-04-25T07:06:19.174Z,93847.16
2023-04-25T07:07:16.095Z,93865.94
2023-04-25T07:08:13.154Z,93893.25
2023-04-25T07:09:14.057Z,93883.69
2023-04-25T07:10:10.998Z,93866.19
2023-04-25T07:11:07.799Z,93908.59
2023-04-25T07:12:04.861Z,93903.81
2023-04-25T07:13:01.993Z,93877.31
2023-04-25T07:13:58.761Z,93851.91
2023-04-25T07:14:55.490Z,93898.00
2023-04-25T07:15:52.287Z,93874.69
2023-04-25T07:16:49.249Z,93902.78
2023-04-25T07:17:46.312Z,93901.72
2023-04-25T07:18:43.133Z,93909.94
2023-04-25T07:19:40.960Z,93912.84
2023-04-25T07:20:40.932Z,93899.59
2023-04-25T07:21:37.711Z,93900.13
2023-04-25T07:22:34.531Z,93875.19
2023-04-25T07:23:31.275Z,93896.38
2023-04-25T07:24:27.977Z,93900.63
2023-04-25T07:25:24.896Z,93883.69
2023-04-25T07:26:21.758Z,93832.59
2023-04-25T07:27:18.473Z,93896.16
2023-04-25T07:28:15.827Z,93898.00
2023-04-25T07:29:13.859Z,93892.16
2023-04-25T07:30:11.030Z,93890.31
2023-04-25T07:31:07.733Z,93887.09
2023-04-25T07:32:04.922Z,93868.81
2023-04-25T07:33:01.841Z,93886.28
2023-04-25T07:33:59.930Z,93878.38
2023-04-25T07:34:58.576Z,93854.28
2023-04-25T07:35:56.882Z,93882.06
2023-04-25T07:36:53.730Z,93863.00
2023-04-25T07:37:50.522Z,93879.44
2023-04-25T07:38:47.375Z,93874.38
2023-04-25T07:39:44.176Z,93879.94
2023-04-25T07:40:40.924Z,93879.91
2023-04-25T07:41:37.683Z,93743.31
2023-04-25T07:42:34.554Z,93848.13
2023-04-25T07:43:31.322Z,93852.88
2023-04-25T07:44:28.127Z,93843.28
2023-04-25T07:45:25.395Z,93871.25
2023-04-25T07:46:22.265Z,93828.94
2023-04-25T07:47:20.390Z,93876.00
2023-04-25T07:48:20.519Z,93846.78
2023-04-25T07:49:17.280Z,93800.84
2023-04-25T07:50:14.045Z,93871.16
2023-04-25T07:51:10.887Z,93857.34
2023-04-25T07:52:07.661Z,93872.22
2023-04-25T07:53:04.958Z,93802.31
2023-04-25T07:54:02.041Z,93873.81
2023-04-25T07:54:59.650Z,93856.91
2023-04-25T07:55:56.451Z,93867.78
2023-04-25T07:56:53.768Z,93822.56
2023-04-25T07:57:50.752Z,93855.84
2023-04-25T07:58:47.572Z,93835.22
2023-04-25T07:59:44.603Z,93792.06
2023-04-25T08:00:42.640Z,93860.00
2023-04-25T08:01:39.420Z,93859.97
2023-04-25T08:02:37.521Z,93844.38
2023-04-25T08:03:34.603Z,93818.63
2023-04-25T08:04:31.736Z,93829.97
2023-04-25T08:05:28.948Z,93854.16
2023-04-25T08:06:26.690Z,93855.69
2023-04-25T08:07:23.647Z,93860.50
2023-04-25T08:08:20.847Z,93849.78
2023-04-25T08:09:17.805Z,93808.66
2023-04-25T08:10:14.670Z,93853.09
2023-04-25T08:11:11.713Z,93855.88
2023-04-25T08:12:08.837Z,93861.59
2023-04-25T08:13:06.527Z,93822.63
2023-04-25T08:14:03.813Z,93837.88
2023-04-25T08:15:00.739Z,93812.94
2023-04-25T08:15:57.550Z,93838.72
2023-04-25T08:16:54.559Z,93858.63
2023-04-25T08:17:51.407Z,93838.03
2023-04-25T08:18:48.302Z,93860.81
2023-04-25T08:19:45.636Z,93862.97
2023-04-25T08:20:42.651Z,93862.34
2023-04-25T08:21:39.504Z,93853.47
2023-04-25T08:22:36.615Z,93868.78
2023-04-25T08:23:33.397Z,93864.59
2023-04-25T08:24:30.291Z,93850.31
2023-04-25T08:25:27.054Z,93876.03
2023-04-25T08:26:23.768Z,93881.28
2023-04-25T08:27:22.576Z,93868.34
2023-04-25T08:28:19.360Z,93848.75
2023-04-25T08:29:16.445Z,93877.34
2023-04-25T08:30:13.559Z,93852.97
2023-04-25T08:31:10.322Z,93873.56
2023-04-25T08:32:07.358Z,93880.63
2023-04-25T08:33:04.190Z,93857.53
2023-04-25T08:34:01.034Z,93892.63
2023-04-25T08:34:57.959Z,93870.91
2023-04-25T08:35:54.771Z,93874.81
2023-04-25T08:36:51.863Z,93883.25
2023-04-25T08:37:50.182Z,93880.13
2023-04-25T08:38:47.011Z,93880.66
2023-04-25T08:39:43.710Z,93872.97
2023-04-25T08:40:41.836Z,93835.03
2023-04-25T08:41:38.886Z,93826.16
2023-04-25T08:42:36.496Z,93865.97
2023-04-25T08:43:33.716Z,93853.06
2023-04-25T08:44:31.819Z,93878.56
2023-04-25T08:45:30.641Z,93877.25
2023-04-25T08:46:28.654Z,93877.28
2023-04-25T08:47:28.094Z,93877.78
2023-04-25T08:48:27.844Z,93878.63
2023-04-25T08:49:26.709Z,93876.78
2023-04-25T08:50:24.254Z,93864.06
2023-04-25T08:51:26.440Z,93843.44
2023-04-25T08:52:25.359Z,93850.31
2023-04-25T08:53:30.841Z,93855.91
2023-04-25T08:54:35.378Z,93863.56
2023-04-25T08:55:34.572Z,93866.72
2023-04-25T08:56:36.028Z,93864.06
2023-04-25T08:57:35.170Z,93866.69
2023-04-25T08:58:33.431Z,93860.06
2023-04-25T08:59:31.820Z,93835.94
2023-04-25T09:00:29.008Z,93836.97
2023-04-25T09:01:26.805Z,93821.41
2023-04-25T09:02:26.031Z,93851.25
2023-04-25T09:03:23.312Z,93748.84
2023-04-25T09:04:21.538Z,93852.53
2023-04-25T09:05:21.592Z,93855.53
2023-04-25T09:06:20.418Z,93856.59
2023-04-25T09:07:19.748Z,93855.47
2023-04-25T09:08:16.608Z,93801.28
2023-04-25T09:09:13.479Z,93851.47
2023-04-25T09:10:10.617Z,93773.69
2023-04-25T09:11:08.634Z,93843.28
2023-04-25T09:12:06.438Z,93844.88
2023-04-25T09:13:07.049Z,93853.31
2023-04-25T09:14:13.927Z,93848.94
2023-04-25T09:15:29.315Z,93806.94
2023-04-25T09:16:26.073Z,93838.56
2023-04-25T09:17:24.585Z,93828.56
2023-04-25T09:18:33.127Z,93826.63
2023-04-25T09:19:39.600Z,93836.38
2023-04-25T09:20:59.628Z,93798.13
2023-04-25T09:21:59.505Z,93826.19
2023-04-25T09:23:04.309Z,93820.31
2023-04-25T09:24:01.566Z,93821.31
2023-04-25T09:24:58.363Z,93831.03
2023-04-25T09:25:55.226Z,93790.41
2023-04-25T09:26:52.002Z,93763.41
2023-04-25T09:27:53.544Z,93818.38
2023-04-25T09:28:50.353Z,93829.53
2023-04-25T09:29:47.447Z,93826.75
2023-04-25T09:30:47.225Z,93776.41
2023-04-25T09:31:44.049Z,93827.16
2023-04-25T09:32:44.374Z,93805.63
2023-04-25T09:33:42.149Z,93832.59
2023-04-25T09:34:49.290Z,93823.09
2023-04-25T09:35:46.590Z,93822.22
2023-04-25T09:36:43.516Z,93828.56
2023-04-25T09:37:42.581Z,93830.94
2023-04-25T09:38:47.253Z,93809.31
2023-04-25T09:39:46.120Z,93836.75
2023-04-25T09:40:50.880Z,93829.03
2023-04-25T09:41:47.736Z,93815.72
2023-04-25T09:42:44.578Z,93781.34
2023-04-25T09:43:46.116Z,93834.81
2023-04-25T09:44:54.428Z,93814.81
2023-04-25T09:45:54.720Z,93786.47
2023-04-25T09:46:54.736Z,93824.47
2023-04-25T09:47:56.389Z,93820.47
2023-04-25T09:48:57.111Z,93830.69
2023-04-25T09:49:57.612Z,93808.81
2023-04-25T09:51:17.358Z,93698.97
2023-04-25T09:52:17.377Z,93820.03
2023-04-25T09:53:14.065Z,93779.06
2023-04-25T09:54:11.296Z,93821.00
2023-04-25T09:55:08.665Z,93782.41
2023-04-25T09:56:07.868Z,93819.69
2023-04-25T09:57:25.440Z,93820.97
2023-04-25T09:58:25.549Z,93822.34
2023-04-25T09:59:23.906Z,93815.59
2023-04-25T10:00:22.826Z,93829.94
2023-04-25T10:01:22.801Z,93719.59
2023-04-25T10:02:22.373Z,93819.91
2023-04-25T10:03:23.982Z,93808.22
2023-04-25T10:04:27.338Z,93818.53
2023-04-25T10:05:26.676Z,93801.31
2023-04-25T10:06:28.238Z,93772.56
2023-04-25T10:07:27.688Z,93793.44
2023-04-25T10:08:27.826Z,93795.47
2023-04-25T10:09:27.669Z,93773.06
2023-04-25T10:10:29.615Z,93807.00
2023-04-25T10:11:29.556Z,93825.09
2023-04-25T10:12:27.601Z,93812.22
2023-04-25T10:13:24.990Z,93828.94
2023-04-25T10:14:23.359Z,93825.44
2023-04-25T10:15:20.971Z,93832.63
2023-04-25T10:16:18.927Z,93824.81
2023-04-25T10:17:16.363Z,93835.88
2023-04-25T10:18:13.781Z,93815.38
2023-04-25T10:19:11.842Z,93809.03
2023-04-25T10:20:11.957Z,93832.44
2023-04-25T10:21:09.117Z,93752.50
2023-04-25T10:22:32.029Z,93826.03
2023-04-25T10:23:31.345Z,93793.88
2023-04-25T10:24:28.334Z,93837.38
2023-04-25T10:25:26.069Z,93798.84
2023-04-25T10:26:23.189Z,93833.00
2023-04-25T10:27:20.485Z,93816.34
2023-04-25T10:28:17.283Z,93835.41
2023-04-25T10:29:22.248Z,93827.44
2023-04-25T10:30:19.524Z,93798.63
2023-04-25T10:31:17.538Z,93777.16
2023-04-25T10:32:14.560Z,93826.09
2023-04-25T10:33:19.005Z,93826.34
2023-04-25T10:34:18.242Z,93826.41
2023-04-25T10:35:24.981Z,93798.63
2023-04-25T10:36:23.794Z,93802.56
2023-04-25T10:37:20.538Z,93794.63
2023-04-25T10:38:17.400Z,93828.00
2023-04-25T10:39:14.625Z,93821.91
2023-04-25T10:40:12.479Z,93799.38
2023-04-25T10:41:11.844Z,93802.22
2023-04-25T10:42:09.163Z,93820.97
2023-04-25T10:43:38.567Z,93829.19
2023-04-25T10:44:37.821Z,93814.34
2023-04-25T10:45:53.391Z,93814.97
2023-04-25T10:46:50.245Z,93758.56
2023-04-25T10:47:47.616Z,93762.44
2023-04-25T10:48:50.384Z,93804.56
2023-04-25T10:49:52.037Z,93793.63
2023-04-25T10:50:49.074Z,93771.00
2023-04-25T10:51:55.393Z,93809.56
2023-04-25T10:52:52.688Z,93801.34
2023-04-25T10:54:01.052Z,93800.72
2023-04-25T10:54:59.645Z,93797.25
2023-04-25T10:55:56.363Z,93802.31
2023-04-25T10:56:54.308Z,93796.16
2023-04-25T10:57:51.987Z,93783.69
2023-04-25T10:58:51.400Z,93810.38
2023-04-25T10:59:49.964Z,93801.88
2023-04-25T11:00:56.704Z,93802.97
2023-04-25T11:01:57.453Z,93791.88
2023-04-25T11:03:00.196Z,93799.59
2023-04-25T11:04:00.456Z,93806.44
2023-04-25T11:04:58.188Z,93813.69
2023-04-25T11:05:58.494Z,93801.91
2023-04-25T11:07:10.688Z,93802.25
2023-04-25T11:08:12.817Z,93797.66
2023-04-25T11:09:16.716Z,93682.09
2023-04-25T11:10:13.811Z,93789.28
2023-04-25T11:11:11.089Z,93789.97
2023-04-25T11:12:12.954Z,93781.09
2023-04-25T11:13:10.005Z,93783.81
2023-04-25T11:14:07.409Z,93601.56
2023-04-25T11:15:06.380Z,93769.81
2023-04-25T11:16:12.303Z,93736.81
2023-04-25T11:17:11.677Z,93769.63
2023-04-25T11:18:11.331Z,93780.56
2023-04-25T11:19:08.217Z,93761.25
2023-04-25T11:20:09.585Z,93784.19
2023-04-25T11:21:07.347Z,93778.94